Time;durP1;ratioP1;P1;durP2;ratioP2;P2;SDS_P1;SDS_P2;PMS_P1;PMS_P2;Temp;Humidity;BMP_temperature;BMP_pressure;BME280_temperature;BME280_humidity;BME280_pressure;Samples;Min_cycle;Max_cycle;Signal;HPM_P1;HPM_P2
2022/05/18 00:00:23;;;;;;;3.60;1.80;;;;;13.70;97250.20;;;;111816;1244;41471;-66
2022/05/18 00:03:10;;;;;;;5.00;2.10;;;;;13.70;97254.80;;;;111549;1244;41256;-66
2022/05/18 00:05:41;;;;;;;6.10;2.00;;;;;13.60;97260.80;;;;111549;1244;41248;-66
2022/05/18 00:08:11;;;;;;;;;;;;;13.60;97260.40;;;;111651;1242;41135;-66
2022/05/18 00:10:45;;;;;;;5.00;1.80;;;;;13.50;97260.00;;;;111746;1241;41609;-66
2022/05/18 00:13:16;;;;;;;3.60;1.80;;;;;13.50;97257.20;;;;111406;1244;41361;-66
2022/05/18 00:15:48;;;;;;;9.80;2.10;;;;;13.48;97261.00;;;;111423;1243;41148;-67
2022/05/18 00:18:18;;;;;;;;;;;;;13.50;97270.00;;;;111426;1244;42153;-67
2022/05/18 00:20:48;;;;;;;;;;;;;13.40;97273.20;;;;111346;1244;41888;-67
2022/05/18 00:23:19;;;;;;;;;;;;;13.40;97270.00;;;;111442;1244;41593;-67
2022/05/18 00:25:50;;;;;;;;;;;;;13.40;97271.40;;;;111398;1245;41369;-67
2022/05/18 00:28:21;;;;;;;;;;;;;13.32;97277.00;;;;111282;1245;41268;-66
2022/05/18 00:30:52;;;;;;;;;;;;;13.30;97280.20;;;;111308;1245;41382;-67
2022/05/18 00:33:23;;;;;;;;;;;;;13.30;97285.40;;;;111347;1243;41150;-66
2022/05/18 00:35:54;;;;;;;;;;;;;13.30;97290.40;;;;111431;1244;41190;-66
2022/05/18 00:38:25;;;;;;;;;;;;;13.20;97292.00;;;;111530;1245;41249;-67
2022/05/18 00:40:56;;;;;;;;;;;;;13.20;97293.80;;;;111523;1245;41986;-67
2022/05/18 00:43:31;;;;;;;;;;;;;13.20;97291.40;;;;111514;1246;41523;-66
2022/05/18 00:46:03;;;;;;;;;;;;;13.14;97289.20;;;;111463;1244;41290;-67
2022/05/18 00:48:37;;;;;;;;;;;;;13.12;97289.20;;;;111466;1244;41248;-64
2022/05/18 00:51:09;;;;;;;;;;;;;13.10;97288.00;;;;111433;1244;41132;-65
2022/05/18 00:53:42;;;;;;;;;;;;;13.10;97277.60;;;;111286;1245;41623;-66
2022/05/18 00:56:15;;;;;;;;;;;;;13.08;97278.40;;;;111361;1244;42409;-66
2022/05/18 00:58:59;;;;;;;;;;;;;13.00;97282.80;;;;111420;1244;41267;-66
2022/05/18 01:01:29;;;;;;;;;;;;;13.06;97288.40;;;;111479;1244;41137;-67
2022/05/18 01:04:02;;;;;;;;;;;;;13.10;97291.00;;;;111528;1244;42395;-66
2022/05/18 01:06:35;;;;;;;;;;;;;13.10;97297.80;;;;111426;1244;41256;-66
2022/05/18 01:09:06;;;;;;;;;;;;;13.10;97306.60;;;;111606;1244;41280;-67
2022/05/18 01:11:38;;;;;;;;;;;;;13.10;97315.60;;;;111621;1244;41170;-66
2022/05/18 01:14:17;;;;;;;;;;;;;13.10;97323.40;;;;111643;1244;41257;-65
2022/05/18 01:16:47;;;;;;;;;;;;;13.02;97330.40;;;;111635;1244;41711;-67
2022/05/18 01:19:44;;;;;;;;;;;;;13.00;97330.60;;;;111519;1245;41390;-69
2022/05/18 01:22:17;;;;;;;;;;;;;12.90;97329.60;;;;111625;1244;41131;-67
2022/05/18 01:24:51;;;;;;;;;;;;;12.84;97332.40;;;;111443;1245;41658;-65
2022/05/18 01:27:24;;;;;;;;;;;;;12.80;97330.20;;;;111549;1244;41189;-67
2022/05/18 01:29:58;;;;;;;;;;;;;12.80;97330.60;;;;111301;1244;42407;-68
2022/05/18 01:32:37;;;;;;;;;;;;;12.80;97330.40;;;;111591;1244;41392;-67
2022/05/18 01:35:10;;;;;;;;;;;;;12.70;97330.60;;;;111384;1245;41784;-66
2022/05/18 01:37:41;;;;;;;;;;;;;12.70;97328.80;;;;111409;1244;41129;-66
2022/05/18 01:40:15;;;;;;;;;;;;;12.70;97330.80;;;;111526;1244;41254;-65
2022/05/18 01:42:48;;;;;;;;;;;;;12.70;97329.40;;;;111487;1244;41257;-66
2022/05/18 01:45:18;;;;;;;;;;;;;12.70;97337.20;;;;111471;1244;41889;-65
2022/05/18 01:47:51;;;;;;;;;;;;;12.60;97330.20;;;;111556;1244;42274;-68
2022/05/18 01:50:27;;;;;;;;;;;;;12.60;97334.20;;;;111559;1243;41151;-66
2022/05/18 01:53:01;;;;;;;;;;;;;12.60;97336.80;;;;111350;1247;41171;-68
2022/05/18 01:55:35;;;;;;;;;;;;;12.50;97337.00;;;;111508;1243;41152;-69
2022/05/18 01:58:09;;;;;;;;;;;;;12.50;97334.40;;;;111160;1247;41151;-68
2022/05/18 02:00:42;;;;;;;;;;;;;12.48;97342.40;;;;111392;1244;41147;-65
2022/05/18 02:03:17;;;;;;;;;;;;;12.40;97344.80;;;;111416;1245;41153;-68
2022/05/18 02:05:53;;;;;;;;;;;;;12.40;97350.20;;;;111225;1245;41637;-69
2022/05/18 02:08:24;;;;;;;;;;;;;12.40;97350.60;;;;111528;1244;41583;-67
2022/05/18 02:10:55;;;;;;;;;;;;;12.40;97346.60;;;;111278;1247;41153;-68
2022/05/18 02:13:28;;;;;;;;;;;;;12.40;97347.20;;;;111424;1244;41178;-65
2022/05/18 02:16:01;;;;;;;;;;;;;12.32;97348.00;;;;111386;1245;42465;-67
2022/05/18 02:18:34;;;;;;;;;;;;;12.30;97351.80;;;;111442;1244;41256;-68
2022/05/18 02:21:08;;;;;;;;;;;;;12.30;97339.80;;;;111476;1245;41180;-66
2022/05/18 02:23:41;;;;;;;;;;;;;12.30;97346.80;;;;111452;1246;41160;-67
2022/05/18 02:26:15;;;;;;;;;;;;;12.30;97340.20;;;;111481;1244;41625;-66
2022/05/18 02:28:47;;;;;;;;;;;;;12.30;97345.80;;;;111403;1244;41273;-66
2022/05/18 02:31:19;;;;;;;;;;;;;12.30;97349.40;;;;111432;1245;41626;-68
2022/05/18 02:33:50;;;;;;;;;;;;;12.20;97351.40;;;;111460;1242;41249;-66
2022/05/18 02:36:29;;;;;;;;;;;;;12.20;97348.80;;;;111485;1244;41146;-67
2022/05/18 02:39:06;;;;;;;;;;;;;12.20;97349.60;;;;111348;1245;41158;-69
2022/05/18 02:41:38;;;;;;;;;;;;;12.16;97355.40;;;;111454;1244;41144;-66
2022/05/18 02:44:11;;;;;;;;;;;;;12.10;97355.60;;;;111582;1244;41148;-69
2022/05/18 02:46:42;;;;;;;;;;;;;12.10;97359.00;;;;111374;1244;41173;-67
2022/05/18 02:49:15;;;;;;;;;;;;;12.10;97360.40;;;;111371;1245;41150;-68
2022/05/18 02:51:45;;;;;;;;;;;;;12.10;97370.20;;;;111420;1244;41143;-69
2022/05/18 02:57:07;;;;;;;;;;;;;12.12;97384.20;;;;111462;1244;41148;-66
2022/05/18 02:59:39;;;;;;;;;;;;;12.14;97391.80;;;;111455;1244;41549;-69
2022/05/18 03:02:10;;;;;;;;;;;;;12.20;97403.20;;;;111483;1244;41130;-68
2022/05/18 03:04:41;;;;;;;;;;;;;12.20;97410.40;;;;111473;1244;41382;-67
2022/05/18 03:07:12;;;;;;;;;;;;;12.20;97419.60;;;;111245;1244;41287;-68
2022/05/18 03:09:43;;;;;;;;;;;;;12.20;97426.40;;;;111355;1245;41300;-67
2022/05/18 03:12:12;;;;;;;;;;;;;12.20;97431.80;;;;111475;1244;41157;-66
2022/05/18 03:14:41;;;;;;;;;;;;;12.20;97434.80;;;;111345;1244;41463;-66
2022/05/18 03:17:13;;;;;;;;;;;;;12.20;97439.80;;;;111314;1244;41143;-68
2022/05/18 03:19:42;;;;;;;;;;;;;12.20;97441.20;;;;111438;1244;41137;-69
2022/05/18 03:25:02;;;;;;;;;;;;;12.20;97456.00;;;;111526;1244;41115;-69
2022/05/18 03:27:32;;;;;;;;;;;;;12.22;97459.00;;;;111454;1244;41172;-66
2022/05/18 03:30:02;;;;;;;;;;;;;12.22;97464.60;;;;111513;1244;41254;-67
2022/05/18 03:32:33;;;;;;;;;;;;;12.20;97466.20;;;;111451;1244;41514;-66
2022/05/18 03:35:03;;;;;;;;;;;;;12.28;97465.40;;;;111595;1243;41145;-66
2022/05/18 03:37:33;;;;;;;;;;;;;12.30;97464.20;;;;111507;1244;41639;-67
2022/05/18 03:40:03;;;;;;;;;;;;;12.30;97468.20;;;;111319;1246;42041;-67
2022/05/18 03:42:33;;;;;;;;;;;;;12.30;97470.40;;;;111507;1244;41133;-68
2022/05/18 03:45:03;;;;;;;;;;;;;12.34;97467.20;;;;111050;1247;41708;-68
2022/05/18 03:47:32;;;;;;;;;;;;;12.32;97463.00;;;;111469;1244;41184;-67
2022/05/18 03:50:02;;;;;;;;;;;;;12.30;97469.20;;;;111526;1243;41403;-66
2022/05/18 03:52:32;;;;;;;;;;;;;12.30;97471.00;;;;111304;1244;41259;-67
2022/05/18 03:55:04;;;;;;;;;;;;;12.30;97478.40;;;;111527;1243;40764;-67
2022/05/18 03:57:34;;;;;;;;;;;;;12.30;97489.80;;;;111332;1244;41165;-66
2022/05/18 04:00:05;;;;;;;;;;;;;12.44;97498.60;;;;111381;1243;41781;-68
2022/05/18 04:02:34;;;;;;;;;;;;;12.70;97499.20;;;;111287;1245;41177;-68
2022/05/18 04:05:04;;;;;;;;;;;;;13.22;97468.60;;;;111355;1245;41158;-67
2022/05/18 04:07:33;;;;;;;;;;;;;14.00;97480.00;;;;111524;1243;42379;-65
2022/05/18 04:10:03;;;;;;;;;;;;;14.64;97460.40;;;;111537;1243;42380;-66
2022/05/18 04:12:32;;;;;;;;;;;;;15.34;97459.00;;;;111476;1244;41941;-67
2022/05/18 04:15:02;;;;;;;;;;;;;15.84;97471.20;;;;111436;1244;41177;-67
2022/05/18 04:17:32;;;;;;;;;;;;;16.06;97458.00;;;;111548;1243;41118;-66
2022/05/18 04:20:01;;;;;;;;;;;;;16.40;97456.80;;;;111531;1244;41142;-65
2022/05/18 04:22:31;;;;;;;;;;;;;16.70;97453.80;;;;111425;1243;41560;-66
2022/05/18 04:25:01;;;;;;;;;;;;;17.00;97468.60;;;;111531;1246;42361;-66
2022/05/18 04:27:31;;;;;;;;;;;;;17.40;97460.00;;;;111439;1244;41244;-66
2022/05/18 04:30:00;;;;;;;;;;;;;17.70;97463.80;;;;111389;1243;41618;-67
2022/05/18 04:32:30;;;;;;;;;;;;;18.10;97464.80;;;;111348;1246;41197;-66
2022/05/18 04:34:59;;;;;;;;;;;;;18.00;97466.20;;;;111531;1244;41933;-67
2022/05/18 04:37:29;;;;;;;;;;;;;17.74;97512.20;;;;111596;1244;41141;-67
2022/05/18 04:39:58;;;;;;;;;;;;;17.30;97484.20;;;;111579;1244;41582;-67
2022/05/18 04:42:27;;;;;;;;;;;;;17.32;97486.20;;;;111379;1243;41297;-67
2022/05/18 04:44:57;;;;;;;;;;;;;17.30;97514.20;;;;111499;1244;41699;-67
2022/05/18 04:47:26;;;;;;;;;;;;;16.80;97525.80;;;;111593;1244;41940;-68
2022/05/18 04:49:55;;;;;;;;;;;;;16.28;97516.00;;;;111327;1244;41154;-66
2022/05/18 04:52:25;;;;;;;;;;;;;16.44;97500.60;;;;111510;1244;41566;-66
2022/05/18 04:54:54;;;;;;;;;;;;;17.02;97511.80;;;;111573;1244;41147;-67
2022/05/18 04:57:23;;;;;;;;;;;;;16.80;97539.40;;;;111472;1244;41383;-67
2022/05/18 04:59:53;;;;;;;;;;;;;16.06;97546.40;;;;111426;1244;41155;-66
2022/05/18 05:02:22;;;;;;;;;;;;;15.80;97521.00;;;;111516;1244;41129;-66
2022/05/18 05:04:53;;;;;;;;;;;;;16.68;97521.00;;;;111538;1244;41122;-67
2022/05/18 05:07:22;;;;;;;;;;;;;17.72;97524.00;;;;111472;1243;42785;-68
2022/05/18 05:09:51;;;;;;;;;;;;;18.34;97524.60;;;;111434;1244;41142;-68
2022/05/18 05:12:20;;;;;;;;;;;;;19.08;97530.20;;;;111369;1244;41249;-67
2022/05/18 05:14:49;;;;;;;;;;;;;19.50;97533.80;;;;111473;1244;41148;-64
2022/05/18 05:17:19;;;;;;;;;;;;;20.16;97536.60;;;;111234;1244;41483;-67
2022/05/18 05:19:50;;;;;;;;;;;;;20.80;97535.20;;;;111496;1245;42175;-67
2022/05/18 05:22:20;;;;;;;;;;;;;21.46;97536.60;;;;111465;1244;41152;-68
2022/05/18 05:24:50;;;;;;;;;;;;;21.64;97535.60;;;;111417;1244;40738;-66
2022/05/18 05:27:19;;;;;;;;;;;;;21.50;97545.40;;;;111486;1244;41124;-68
2022/05/18 05:29:50;;;;;;;;;;;;;21.48;97543.00;;;;111308;1246;41780;-69
2022/05/18 05:32:19;;;;;;;;;;;;;21.36;97569.00;;;;111553;1244;42268;-68
2022/05/18 05:34:48;;;;;;;;;;;;;21.08;97579.40;;;;111539;1245;42132;-67
2022/05/18 05:37:17;;;;;;;;;;;;;20.50;97562.00;;;;111421;1244;41153;-68
2022/05/18 05:39:46;;;;;;;;;;;;;20.16;97587.40;;;;111316;1244;42532;-68
2022/05/18 05:42:15;;;;;;;;;;;;;19.94;97595.20;;;;111503;1244;41146;-66
2022/05/18 05:44:44;;;;;;;;;;;;;19.66;97599.00;;;;111504;1244;41945;-67
2022/05/18 05:47:14;;;;;;;;;;;;;19.70;97612.00;;;;111405;1245;41274;-68
2022/05/18 05:49:43;;;;;;;;;;;;;19.68;97611.20;;;;111535;1244;41257;-65
2022/05/18 05:52:12;;;;;;;;;;;;;19.56;97626.40;;;;111567;1244;41165;-68
2022/05/18 05:54:43;;;;;;;;;;;;;19.22;97626.60;;;;111405;1245;41890;-68
2022/05/18 05:57:12;;;;;;;;;;;;;19.50;97619.20;;;;111552;1244;41292;-69
2022/05/18 05:59:41;;;;;;;;;;;;;20.20;97615.20;;;;111532;1244;41215;-68
2022/05/18 06:02:12;;;;;;;;;;;;;21.06;97617.20;;;;111523;1245;41489;-68
2022/05/18 06:04:41;;;;;;;;;;;;;21.30;97621.80;;;;111540;1244;41358;-68
2022/05/18 06:07:11;;;;;;;;;;;;;21.60;97624.80;;;;111508;1244;41152;-69
2022/05/18 06:09:41;;;;;;;;;;;;;22.10;97630.60;;;;111459;1244;41154;-70
2022/05/18 06:12:11;;;;;;;;;;;;;22.32;97623.60;;;;111564;1240;41159;-70
2022/05/18 06:14:44;;;;;;;;;;;;;22.50;97633.80;;;;111620;1244;41153;-68
2022/05/18 06:17:13;;;;;;;;;;;;;22.38;97640.40;;;;111678;1241;41151;-69
2022/05/18 06:19:42;;;;;;;;;;;;;22.60;97646.40;;;;111695;1242;41112;-69
2022/05/18 06:22:11;;;;;;;;;;;;;23.30;97641.00;;;;111632;1244;42091;-70
2022/05/18 06:24:41;;;;;;;;;;;;;23.66;97642.00;;;;111625;1244;41262;-71
2022/05/18 06:27:10;;;;;;;;;;;;;23.30;97653.00;;;;111593;1243;41126;-68
2022/05/18 06:29:40;;;;;;;;;;;;;23.22;97655.80;;;;111645;1243;41158;-70
2022/05/18 06:32:09;;;;;;;;;;;;;23.76;97664.20;;;;111434;1244;41257;-70
2022/05/18 06:34:38;;;;;;;;;;;;;23.94;97664.60;;;;111569;1241;41176;-70
2022/05/18 06:37:06;;;;;;;;;;;;;24.46;97663.20;;;;111636;1244;41137;-69
2022/05/18 06:39:35;;;;;;;;;;;;;24.48;97669.20;;;;111510;1244;41247;-70
2022/05/18 06:42:04;;;;;;;;;;;;;24.86;97675.20;;;;111564;1244;42078;-69
2022/05/18 06:44:37;;;;;;;;;;;;;25.00;97679.80;;;;111460;1244;41247;-69
2022/05/18 06:47:09;;;;;;;;;;;;;25.10;97677.60;;;;111655;1243;41147;-69
2022/05/18 06:49:39;;;;;;;;;;;;;25.28;97673.80;;;;111452;1244;41942;-70
2022/05/18 06:52:11;;;;;;;;;;;;;25.30;97685.60;;;;111445;1242;42363;-69
2022/05/18 06:54:40;;;;;;;;;;;;;25.48;97688.40;;;;111596;1244;41175;-69
2022/05/18 06:57:20;;;;;;;;;;;;;25.70;97695.40;;;;111570;1243;41591;-69
2022/05/18 06:59:49;;;;;;;;;;;;;25.52;97696.20;;;;111441;1244;41366;-69
2022/05/18 07:02:18;;;;;;;;;;;;;25.10;97694.00;;;;111665;1244;41261;-67
2022/05/18 07:04:48;;;;;;;;;;;;;24.04;97702.00;;;;111693;1243;41451;-69
2022/05/18 07:07:18;;;;;;;;;;;;;23.46;97701.80;;;;111682;1244;41147;-69
2022/05/18 07:09:47;;;;;;;;;;;;;22.76;97705.60;;;;111618;1244;41587;-68
2022/05/18 07:12:16;;;;;;;;;;;;;22.26;97720.20;;;;111474;1245;41688;-70
2022/05/18 07:14:45;;;;;;;;;;;;;22.08;97729.80;;;;111654;1243;41365;-68
2022/05/18 07:17:19;;;;;;;;;;;;;21.86;97727.80;;;;111523;1243;41229;-69
2022/05/18 07:19:47;;;;;;;;;;;;;21.34;97735.40;;;;111554;1241;41734;-67
2022/05/18 07:22:16;;;;;;;;;;;;;21.20;97736.20;;;;111647;1242;42355;-69
2022/05/18 07:24:45;;;;;;;;;;;;;20.70;97744.20;;;;111558;1244;41265;-71
2022/05/18 07:27:14;;;;;;;;;;;;;19.72;97759.20;;;;111657;1241;41170;-67
2022/05/18 07:29:43;;;;;;;;;;;;;19.50;97766.80;;;;111567;1243;41720;-68
2022/05/18 07:32:13;;;;;;;;;;;;;19.50;97771.80;;;;111575;1242;41936;-67
2022/05/18 07:34:43;;;;;;;;;;;;;19.46;97778.00;;;;111658;1244;41238;-66
2022/05/18 07:37:12;;;;;;;;;;;;;19.26;97771.60;;;;111628;1244;41371;-67
2022/05/18 07:39:41;;;;;;;;;;;;;18.96;97780.60;;;;111441;1244;41885;-68
2022/05/18 07:42:11;;;;;;;;;;;;;18.90;97793.60;;;;111420;1244;42761;-68
2022/05/18 07:44:40;;;;;;;;;;;;;18.80;97801.00;;;;111719;1241;41126;-70
2022/05/18 07:47:09;;;;;;;;;;;;;18.70;97815.00;;;;111444;1244;42365;-69
2022/05/18 07:49:40;;;;;;;;;;;;;18.80;97818.20;;;;111587;1243;41602;-69
2022/05/18 07:52:10;;;;;;;;;;;;;18.70;97820.80;;;;111693;1241;41233;-69
2022/05/18 07:54:39;;;;;;;;;;;;;18.70;97819.40;;;;111630;1244;41597;-69
2022/05/18 07:57:08;;;;;;;;;;;;;18.80;97821.20;;;;111506;1244;41193;-66
2022/05/18 07:59:37;;;;;;;;;;;;;18.78;97824.40;;;;111686;1244;41959;-69
2022/05/18 08:02:06;;;;;;;;;;;;;18.94;97829.60;;;;111621;1244;41138;-68
2022/05/18 08:04:35;;;;;;;;;;;;;19.20;97832.40;;;;111576;1243;41595;-69
2022/05/18 08:07:05;;;;;;;;;;;;;19.40;97836.80;;;;111626;1244;42347;-68
2022/05/18 08:15:05;;;;;;;;;;;;;19.30;97846.80;;;;111636;1241;41620;-68
2022/05/18 08:15:12;;;;;;;;;;;;;19.80;97847.40;;;;111593;1244;41134;-68
2022/05/18 08:17:43;;;;;;;;;;;;;20.40;97842.00;;;;111674;1242;41166;-67
2022/05/18 08:20:13;;;;;;;;;;;;;20.52;97856.40;;;;111577;1243;41479;-70
2022/05/18 08:22:42;;;;;;;;;;;;;20.76;97850.80;;;;111537;1243;41320;-69
2022/05/18 08:25:11;;;;;;;;;;;;;20.62;97855.20;;;;111601;1244;41129;-69
2022/05/18 08:27:47;;;;;;;;;;;;;20.80;97857.40;;;;111544;1243;41756;-66
2022/05/18 08:30:19;;;;;;;;;;;;;21.36;97863.40;;;;111435;1244;41529;-70
2022/05/18 08:32:50;;;;;;;;;;;;;21.94;97857.20;;;;111368;1244;41259;-70
2022/05/18 08:35:19;;;;;;;;;;;;;22.34;97854.60;;;;111464;1244;41600;-66
2022/05/18 08:37:48;;;;;;;;;;;;;22.94;97858.40;;;;111610;1243;41118;-68
2022/05/18 08:40:29;;;;;;;;;;;;;23.40;97851.40;;;;111636;1242;41124;-71
2022/05/18 08:42:59;;;;;;;;;;;;;23.42;97854.40;;;;111526;1243;41129;-70
2022/05/18 08:45:29;;;;;;;;;;;;;23.80;97865.40;;;;111530;1244;41180;-71
2022/05/18 08:48:07;;;;;;;;;;;;;23.82;97863.00;;;;111610;1243;42091;-68
2022/05/18 08:50:37;;;;;;;;;;;;;23.90;97861.60;;;;111629;1244;41180;-69
2022/05/18 08:53:18;;;;;;;;;;;;;23.78;97871.40;;;;111645;1243;41739;-69
2022/05/18 08:56:08;;;;;;;;;;;;;24.10;97873.80;;;;111544;1244;41158;-70
2022/05/18 08:58:45;;;;;;;;;;;;;24.00;97883.20;;;;111576;1244;41137;-70
2022/05/18 09:01:28;;;;;;;;;;;;;23.82;97887.20;;;;111678;1243;41866;-70
2022/05/18 09:04:01;;;;;;;;;;;;;23.90;97890.60;;;;111681;1243;41261;-70
2022/05/18 09:06:42;;;;;;;;;;;;;23.58;97890.40;;;;111603;1242;41262;-70
2022/05/18 09:12:01;;;;;;;;;;;;;23.32;97878.40;;;;111459;1244;41251;-68
2022/05/18 09:14:33;;;;;;;;;;;;;22.98;97904.60;;;;111593;1243;41601;-70
2022/05/18 09:17:24;;;;;;;;;;;;;22.94;97897.00;;;;111683;1243;41319;-70
2022/05/18 09:19:57;;;;;;;;;;;;;22.74;97910.40;;;;111567;1242;41251;-69
2022/05/18 09:22:29;;;;;;;;;;;;;23.08;97911.60;;;;111664;1243;41287;-71
2022/05/18 09:25:16;;;;;;;;;;;;;23.18;97900.80;;;;111645;1241;41128;-70
2022/05/18 09:28:04;;;;;;;;;;;;;22.94;97911.20;;;;111694;1244;41145;-70
2022/05/18 09:30:37;;;;;;;;;;;;;22.80;97918.00;;;;111655;1244;42187;-71
2022/05/18 09:33:16;;;;;;;;;;;;;22.76;97909.40;;;;111669;1243;42087;-70
2022/05/18 09:35:48;;;;;;;;;;;;;22.74;97920.80;;;;111567;1244;42032;-70
2022/05/18 09:38:20;;;;;;;;;;;;;22.68;97924.40;;;;111580;1244;41312;-68
2022/05/18 09:40:50;;;;;;;;;;;;;23.06;97931.00;;;;111677;1244;41610;-71
2022/05/18 09:43:22;;;;;;;;;;;;;23.12;97921.80;;;;111561;1242;41186;-70
2022/05/18 09:45:50;;;;;;;;;;;;;23.00;97930.20;;;;111587;1242;42224;-69
2022/05/18 09:48:29;;;;;;;;;;;;;23.00;97935.40;;;;111525;1241;41140;-71
2022/05/18 09:50:59;;;;;;;;;;;;;23.06;97932.20;;;;111821;1241;41930;-69
2022/05/18 09:53:28;;;;;;;;;;;;;23.08;97931.80;;;;111681;1244;41333;-69
2022/05/18 09:55:57;;;;;;;;;;;;;23.42;97932.40;;;;111773;1242;41118;-70
2022/05/18 09:58:26;;;;;;;;;;;;;23.60;97931.60;;;;111371;1244;315253;-70
2022/05/18 10:09:42;;;;;;;;;;;;;24.20;97936.80;;;;111664;1243;41197;-67
2022/05/18 10:12:22;;;;;;;;;;;;;24.14;97940.60;;;;111773;1243;42044;-71
2022/05/18 10:14:58;;;;;;;;;;;;;24.18;97937.00;;;;111685;1242;41898;-66
2022/05/18 10:17:32;;;;;;;;;;;;;24.04;97939.60;;;;111864;1241;41172;-70
2022/05/18 10:20:06;;;;;;;;;;;;;23.80;97953.20;;;;111785;1241;41303;-70
2022/05/18 10:22:36;;;;;;;;;;;;;23.50;97960.60;;;;111566;1244;41589;-71
2022/05/18 10:25:10;;;;;;;;;;;;;23.40;97955.40;;;;111586;1241;41727;-66
2022/05/18 10:27:41;;;;;;;;;;;;;23.42;97954.40;;;;111475;1244;41260;-67
2022/05/18 10:30:14;;;;;;;;;;;;;23.34;97955.20;;;;111850;1241;41135;-68
2022/05/18 10:32:52;;;;;;;;;;;;;22.82;97952.60;;;;111505;1243;42520;-70
2022/05/18 10:35:33;;;;;;;;;;;;;22.70;97961.60;;;;111515;1243;41118;-66
2022/05/18 10:38:02;;;;;;;;;;;;;22.90;97964.60;;;;111497;1244;42355;-67
2022/05/18 10:40:31;;;;;;;;;;;;;23.00;97966.40;;;;111520;1243;42348;-69
2022/05/18 10:43:15;;;;;;;;;;;;;23.30;97964.00;;;;111632;1243;42194;-66
2022/05/18 10:46:24;;;;;;;;;;;;;23.40;97962.00;;;;111466;1243;42300;-70
2022/05/18 10:48:55;;;;;;;;;;;;;23.40;97955.20;;;;111492;1243;41266;-72
2022/05/18 10:51:39;;;;;;;;;;;;;23.30;97959.80;;;;111420;1243;41133;-72
2022/05/18 10:54:18;;;;;;;;;;;;;23.36;97961.20;;;;111597;1243;41152;-70
2022/05/18 10:56:47;;;;;;;;;;;;;23.68;97965.00;;;;111445;1244;41288;-71
2022/05/18 10:59:23;;;;;;;;;;;;;24.26;97966.20;;;;111620;1242;41657;-71
2022/05/18 11:01:55;;;;;;;;;;;;;24.60;97966.00;;;;111605;1243;41148;-70
2022/05/18 11:04:35;;;;;;;;;;;;;25.26;97963.20;;;;111453;1242;41564;-70
2022/05/18 11:07:05;;;;;;;;;;;;;25.90;97953.20;;;;111551;1243;41304;-71
2022/05/18 11:09:34;;;;;;;;;;;;;26.54;97949.60;;;;111637;1243;41250;-69
2022/05/18 11:12:03;;;;;;;;;;;;;27.06;97943.00;;;;111628;1243;41263;-68
2022/05/18 11:14:39;;;;;;;;;;;;;27.68;97953.20;;;;111506;1243;41414;-70
2022/05/18 11:17:08;;;;;;;;;;;;;28.18;97950.20;;;;111437;1242;42414;-70
2022/05/18 11:19:37;;;;;;;;;;;;;28.50;97947.80;;;;111407;1243;42374;-70
2022/05/18 11:22:18;;;;;;;;;;;;;29.02;97951.80;;;;111461;1243;41137;-68
2022/05/18 11:24:58;;;;;;;;;;;;;29.58;97950.40;;;;111778;1243;41300;-69
2022/05/18 11:27:58;;;;;;;;;;;;;29.88;97953.80;;;;111742;1243;41243;-70
2022/05/18 11:30:38;;;;;;;;;;;;;29.08;97959.80;;;;111282;1245;41427;-70
2022/05/18 11:33:07;;;;;;;;;;;;;29.32;97952.60;;;;111528;1244;41251;-71
2022/05/18 11:35:48;;;;;;;;;;;;;29.44;97953.00;;;;111608;1243;41145;-71
2022/05/18 11:38:20;;;;;;;;;;;;;29.24;97947.80;;;;111632;1243;41698;-71
2022/05/18 11:40:59;;;;;;;;;;;;;29.28;97949.20;;;;111653;1242;42621;-70
2022/05/18 11:43:38;;;;;;;;;;;;;29.76;97943.00;;;;111452;1244;41935;-71
2022/05/18 11:46:07;;;;;;;;;;;;;29.88;97938.80;;;;111437;1243;41206;-72
2022/05/18 11:48:36;;;;;;;;;;;;;29.56;97946.80;;;;111645;1243;41334;-71
2022/05/18 11:51:11;;;;;;;;;;;;;29.42;97953.00;;;;111663;1243;41256;-69
2022/05/18 11:53:58;;;;;;;;;;;;;29.76;97955.00;;;;111585;1243;41125;-71
2022/05/18 11:56:30;;;;;;;;;;;;;30.48;97948.60;;;;111627;1242;41223;-69
2022/05/18 11:59:29;;;;;;;;;;;;;30.86;97946.00;;;;111632;1243;41175;-71
2022/05/18 12:02:13;;;;;;;;;;;;;30.72;97947.60;;;;111594;1241;42102;-71
2022/05/18 12:04:48;;;;;;;;;;;;;30.70;97946.40;;;;111623;1243;42535;-68
2022/05/18 12:07:33;;;;;;;;;;;;;30.38;97953.00;;;;111633;1242;42987;-70
2022/05/18 12:10:21;;;;;;;;;;;;;29.62;97953.80;;;;111611;1242;41594;-69
2022/05/18 12:12:53;;;;;;;;;;;;;29.18;97965.40;;;;111488;1244;41903;-71
2022/05/18 12:15:28;;;;;;;;;;;;;29.06;97964.00;;;;111583;1244;41630;-71
2022/05/18 12:17:59;;;;;;;;;;;;;29.20;97965.40;;;;111501;1243;41260;-68
2022/05/18 12:20:40;;;;;;;;;;;;;28.54;97971.60;;;;111360;1244;41628;-70
2022/05/18 12:23:10;;;;;;;;;;;;;27.86;97976.00;;;;111513;1241;42496;-69
2022/05/18 12:25:39;;;;;;;;;;;;;27.04;97984.00;;;;111603;1242;41552;-71
2022/05/18 12:28:09;;;;;;;;;;;;;26.26;97989.60;;;;111494;1243;41144;-69
2022/05/18 12:30:39;;;;;;;;;;;;;25.38;97987.00;;;;111527;1244;41243;-70
2022/05/18 12:33:09;;;;;;;;;;;;;24.80;97982.60;;;;111378;1244;41600;-70
2022/05/18 12:35:57;;;;;;;;;;;;;24.16;97991.20;;;;111505;1244;41984;-70
2022/05/18 12:38:38;;;;;;;;;;;;;23.82;97991.60;;;;111623;1243;41573;-68
2022/05/18 12:41:11;;;;;;;;;;;;;23.46;97999.00;;;;111568;1243;41240;-70
2022/05/18 12:43:49;;;;;;;;;;;;;22.98;97999.80;;;;111617;1243;41208;-70
2022/05/18 12:46:30;;;;;;;;;;;;;22.70;98001.20;;;;111471;1243;41135;-71
2022/05/18 12:49:00;;;;;;;;;;;;;22.34;97995.20;;;;111400;1244;41236;-70
2022/05/18 12:51:31;;;;;;;;;;;;;22.02;97995.80;;;;111533;1244;41247;-71
2022/05/18 12:54:07;;;;;;;;;;;;;21.70;98002.80;;;;111515;1243;41598;-70
2022/05/18 12:56:36;;;;;;;;;;;;;21.48;97997.80;;;;111391;1244;41418;-72
2022/05/18 12:59:08;;;;;;;;;;;;;21.42;97993.60;;;;111636;1244;42000;-74
2022/05/18 13:01:44;;;;;;;;;;;;;21.22;97992.60;;;;111277;1244;42442;-71
2022/05/18 13:04:16;;;;;;;;;;;;;20.96;97990.20;;;;111354;1244;41153;-71
2022/05/18 13:06:47;;;;;;;;;;;;;20.88;97993.20;;;;111683;1243;41158;-71
2022/05/18 13:09:15;;;;;;;;;;;;;20.70;97996.80;;;;111623;1243;42365;-71
2022/05/18 13:11:46;;;;;;;;;;;;;20.60;97991.80;;;;111653;1243;41602;-71
2022/05/18 13:14:56;;;;;;;;;;;;;20.50;97995.60;;;;111515;1244;42473;-71
2022/05/18 13:17:40;;;;;;;;;;;;;20.40;97995.40;;;;111373;1244;41132;-68
2022/05/18 13:20:27;;;;;;;;;;;;;20.18;97996.40;;;;111641;1241;41254;-71
2022/05/18 13:23:16;;;;;;;;;;;;;20.10;97986.80;;;;111471;1241;41266;-70
2022/05/18 13:25:46;;;;;;;;;;;;;20.02;97993.60;;;;111487;1243;41627;-69
2022/05/18 13:28:15;;;;;;;;;;;;;20.08;97992.40;;;;111518;1243;41517;-69
2022/05/18 13:30:47;;;;;;;;;;;;;20.00;97988.60;;;;111655;1243;41259;-72
2022/05/18 13:33:43;;;;;;;;;;;;;20.06;97990.80;;;;111541;1244;41181;-71
2022/05/18 13:36:12;;;;;;;;;;;;;20.06;97983.00;;;;111543;1244;41257;-71
2022/05/18 13:38:42;;;;;;;;;;;;;20.04;97982.80;;;;111576;1243;41371;-71
2022/05/18 13:41:12;;;;;;;;;;;;;20.04;97987.60;;;;111277;1244;42744;-71
2022/05/18 13:43:42;;;;;;;;;;;;;20.08;97985.20;;;;111523;1243;41143;-70
2022/05/18 13:46:15;;;;;;;;;;;;;20.10;97991.80;;;;111599;1243;42259;-70
2022/05/18 13:48:45;;;;;;;;;;;;;19.90;97984.40;;;;111479;1244;41322;-68
2022/05/18 13:51:19;;;;;;;;;;;;;19.90;97991.20;;;;111647;1243;41280;-67
2022/05/18 13:53:59;;;;;;;;;;;;;19.92;97997.60;;;;111517;1244;41258;-67
2022/05/18 13:56:30;;;;;;;;;;;;;20.00;97994.40;;;;111464;1244;41688;-65
2022/05/18 13:59:00;;;;;;;;;;;;;19.94;97994.40;;;;111622;1242;41126;-69
2022/05/18 14:01:32;;;;;;;;;;;;;19.98;98000.20;;;;111634;1241;42354;-68
2022/05/18 14:04:01;;;;;;;;;;;;;19.90;97997.60;;;;111541;1243;41146;-68
2022/05/18 14:06:31;;;;;;;;;;;;;20.00;98002.00;;;;111436;1244;41216;-68
2022/05/18 14:09:11;;;;;;;;;;;;;19.90;98001.80;;;;111499;1243;41433;-65
2022/05/18 14:11:40;;;;;;;;;;;;;19.90;97994.60;;;;111374;1243;41151;-67
2022/05/18 14:14:15;;;;;;;;;;;;;19.90;98005.40;;;;111569;1243;41163;-68
2022/05/18 14:16:59;;;;;;;;;;;;;19.90;98002.60;;;;111507;1243;41135;-66